sensor_id;sensor_type;location;lat;lon;timestamp;P1;durP1;ratioP1;P2;durP2;ratioP2
4278;SDS011;2153;47.744;10.580;2023-07-31T00:01:37;18.93;;;2.97;;
4278;SDS011;2153;47.744;10.580;2023-07-31T00:04:04;15.97;;;3.47;;
4278;SDS011;2153;47.744;10.580;2023-07-31T00:06:31;14.00;;;2.77;;
4278;SDS011;2153;47.744;10.580;2023-07-31T00:08:57;13.83;;;3.27;;
4278;SDS011;2153;47.744;10.580;2023-07-31T00:11:25;18.57;;;4.03;;
4278;SDS011;2153;47.744;10.580;2023-07-31T00:13:52;13.40;;;3.23;;
4278;SDS011;2153;47.744;10.580;2023-07-31T00:16:19;15.70;;;3.53;;
4278;SDS011;2153;47.744;10.580;2023-07-31T00:18:46;13.27;;;3.07;;
4278;SDS011;2153;47.744;10.580;2023-07-31T00:21:12;16.00;;;2.70;;
4278;SDS011;2153;47.744;10.580;2023-07-31T00:23:38;14.13;;;3.50;;
4278;SDS011;2153;47.744;10.580;2023-07-31T00:26:05;13.50;;;3.33;;
4278;SDS011;2153;47.744;10.580;2023-07-31T00:28:33;15.83;;;3.03;;
4278;SDS011;2153;47.744;10.580;2023-07-31T00:31:00;14.33;;;3.17;;
4278;SDS011;2153;47.744;10.580;2023-07-31T00:33:28;14.07;;;3.13;;
4278;SDS011;2153;47.744;10.580;2023-07-31T00:35:55;14.63;;;3.20;;
4278;SDS011;2153;47.744;10.580;2023-07-31T00:38:22;13.40;;;3.13;;
4278;SDS011;2153;47.744;10.580;2023-07-31T00:40:49;13.83;;;3.10;;
4278;SDS011;2153;47.744;10.580;2023-07-31T00:43:15;14.60;;;3.17;;
4278;SDS011;2153;47.744;10.580;2023-07-31T00:45:43;14.30;;;3.13;;
4278;SDS011;2153;47.744;10.580;2023-07-31T00:48:10;14.93;;;3.67;;
4278;SDS011;2153;47.744;10.580;2023-07-31T00:50:37;14.20;;;2.97;;
4278;SDS011;2153;47.744;10.580;2023-07-31T00:53:05;12.37;;;2.67;;
4278;SDS011;2153;47.744;10.580;2023-07-31T00:55:31;13.27;;;2.53;;
4278;SDS011;2153;47.744;10.580;2023-07-31T00:57:58;17.60;;;3.40;;
4278;SDS011;2153;47.744;10.580;2023-07-31T01:00:25;15.70;;;3.10;;
4278;SDS011;2153;47.744;10.580;2023-07-31T01:02:53;14.50;;;3.20;;
4278;SDS011;2153;47.744;10.580;2023-07-31T01:05:21;16.13;;;3.10;;
4278;SDS011;2153;47.744;10.580;2023-07-31T01:07:55;13.60;;;3.40;;
4278;SDS011;2153;47.744;10.580;2023-07-31T01:10:30;13.53;;;3.60;;
4278;SDS011;2153;47.744;10.580;2023-07-31T01:13:02;12.97;;;3.20;;
4278;SDS011;2153;47.744;10.580;2023-07-31T01:15:31;15.57;;;3.00;;
4278;SDS011;2153;47.744;10.580;2023-07-31T01:17:59;14.63;;;3.67;;
4278;SDS011;2153;47.744;10.580;2023-07-31T01:20:26;15.03;;;3.10;;
4278;SDS011;2153;47.744;10.580;2023-07-31T01:23:08;14.60;;;3.40;;
4278;SDS011;2153;47.744;10.580;2023-07-31T01:28:44;13.60;;;3.40;;
4278;SDS011;2153;47.744;10.580;2023-07-31T01:31:18;13.37;;;3.53;;
4278;SDS011;2153;47.744;10.580;2023-07-31T01:33:47;14.50;;;3.30;;
4278;SDS011;2153;47.744;10.580;2023-07-31T01:36:15;14.67;;;3.30;;
4278;SDS011;2153;47.744;10.580;2023-07-31T01:38:42;15.17;;;3.53;;
4278;SDS011;2153;47.744;10.580;2023-07-31T01:41:09;13.70;;;3.30;;
4278;SDS011;2153;47.744;10.580;2023-07-31T01:43:37;16.23;;;3.10;;
4278;SDS011;2153;47.744;10.580;2023-07-31T01:46:03;14.03;;;2.90;;
4278;SDS011;2153;47.744;10.580;2023-07-31T01:48:30;14.03;;;3.00;;
4278;SDS011;2153;47.744;10.580;2023-07-31T01:51:00;16.23;;;3.40;;
4278;SDS011;2153;47.744;10.580;2023-07-31T01:53:27;15.83;;;3.20;;
4278;SDS011;2153;47.744;10.580;2023-07-31T01:55:54;14.37;;;3.53;;
4278;SDS011;2153;47.744;10.580;2023-07-31T01:58:21;12.93;;;2.97;;
4278;SDS011;2153;47.744;10.580;2023-07-31T02:00:49;13.50;;;3.10;;
4278;SDS011;2153;47.744;10.580;2023-07-31T02:03:15;13.90;;;3.30;;
4278;SDS011;2153;47.744;10.580;2023-07-31T02:05:43;14.90;;;3.93;;
4278;SDS011;2153;47.744;10.580;2023-07-31T02:08:11;14.80;;;3.90;;
4278;SDS011;2153;47.744;10.580;2023-07-31T02:10:37;15.00;;;3.43;;
4278;SDS011;2153;47.744;10.580;2023-07-31T02:13:04;14.20;;;2.93;;
4278;SDS011;2153;47.744;10.580;2023-07-31T02:15:31;15.30;;;3.33;;
4278;SDS011;2153;47.744;10.580;2023-07-31T02:17:59;25.57;;;3.80;;
4278;SDS011;2153;47.744;10.580;2023-07-31T02:20:26;14.57;;;4.00;;
4278;SDS011;2153;47.744;10.580;2023-07-31T02:22:52;16.50;;;4.23;;
4278;SDS011;2153;47.744;10.580;2023-07-31T02:25:19;23.30;;;4.10;;
4278;SDS011;2153;47.744;10.580;2023-07-31T02:27:46;19.70;;;3.90;;
4278;SDS011;2153;47.744;10.580;2023-07-31T02:30:12;13.77;;;3.73;;
4278;SDS011;2153;47.744;10.580;2023-07-31T02:32:39;13.50;;;3.57;;
4278;SDS011;2153;47.744;10.580;2023-07-31T02:35:08;14.10;;;4.20;;
4278;SDS011;2153;47.744;10.580;2023-07-31T02:37:35;16.40;;;3.77;;
4278;SDS011;2153;47.744;10.580;2023-07-31T02:40:02;15.20;;;4.00;;
4278;SDS011;2153;47.744;10.580;2023-07-31T02:42:29;19.07;;;4.53;;
4278;SDS011;2153;47.744;10.580;2023-07-31T02:44:55;13.70;;;3.67;;
4278;SDS011;2153;47.744;10.580;2023-07-31T02:47:22;14.53;;;3.80;;
4278;SDS011;2153;47.744;10.580;2023-07-31T02:49:49;16.77;;;4.03;;
4278;SDS011;2153;47.744;10.580;2023-07-31T02:52:17;18.17;;;3.53;;
4278;SDS011;2153;47.744;10.580;2023-07-31T02:54:44;13.80;;;3.67;;
4278;SDS011;2153;47.744;10.580;2023-07-31T02:57:11;16.00;;;3.67;;
4278;SDS011;2153;47.744;10.580;2023-07-31T02:59:38;18.30;;;4.17;;
4278;SDS011;2153;47.744;10.580;2023-07-31T03:02:05;14.67;;;4.23;;
4278;SDS011;2153;47.744;10.580;2023-07-31T03:04:31;15.50;;;3.90;;
4278;SDS011;2153;47.744;10.580;2023-07-31T03:06:58;13.03;;;3.63;;
4278;SDS011;2153;47.744;10.580;2023-07-31T03:09:26;14.07;;;3.50;;
4278;SDS011;2153;47.744;10.580;2023-07-31T03:11:53;13.07;;;3.63;;
4278;SDS011;2153;47.744;10.580;2023-07-31T03:14:19;17.13;;;3.90;;
4278;SDS011;2153;47.744;10.580;2023-07-31T03:16:46;16.20;;;3.57;;
4278;SDS011;2153;47.744;10.580;2023-07-31T03:19:13;14.90;;;3.20;;
4278;SDS011;2153;47.744;10.580;2023-07-31T03:21:40;15.63;;;3.80;;
4278;SDS011;2153;47.744;10.580;2023-07-31T03:24:07;17.20;;;3.77;;
4278;SDS011;2153;47.744;10.580;2023-07-31T03:26:35;12.80;;;3.30;;
4278;SDS011;2153;47.744;10.580;2023-07-31T03:29:02;13.53;;;3.50;;
4278;SDS011;2153;47.744;10.580;2023-07-31T03:31:29;21.63;;;3.60;;
4278;SDS011;2153;47.744;10.580;2023-07-31T03:33:55;15.27;;;3.90;;
4278;SDS011;2153;47.744;10.580;2023-07-31T03:36:22;14.47;;;4.13;;
4278;SDS011;2153;47.744;10.580;2023-07-31T03:38:49;12.60;;;3.30;;
4278;SDS011;2153;47.744;10.580;2023-07-31T03:41:17;16.80;;;3.43;;
4278;SDS011;2153;47.744;10.580;2023-07-31T03:43:46;14.20;;;3.23;;
4278;SDS011;2153;47.744;10.580;2023-07-31T03:46:16;12.40;;;2.90;;
4278;SDS011;2153;47.744;10.580;2023-07-31T03:48:43;12.83;;;2.83;;
4278;SDS011;2153;47.744;10.580;2023-07-31T03:51:09;14.63;;;3.23;;
4278;SDS011;2153;47.744;10.580;2023-07-31T03:53:36;16.90;;;4.00;;
4278;SDS011;2153;47.744;10.580;2023-07-31T03:56:04;13.80;;;3.20;;
4278;SDS011;2153;47.744;10.580;2023-07-31T03:58:31;17.10;;;3.00;;
4278;SDS011;2153;47.744;10.580;2023-07-31T04:00:59;12.10;;;2.70;;
4278;SDS011;2153;47.744;10.580;2023-07-31T04:03:25;18.80;;;3.33;;
4278;SDS011;2153;47.744;10.580;2023-07-31T04:05:53;14.97;;;3.10;;
4278;SDS011;2153;47.744;10.580;2023-07-31T04:08:20;14.60;;;3.37;;
4278;SDS011;2153;47.744;10.580;2023-07-31T04:10:47;18.57;;;4.27;;
4278;SDS011;2153;47.744;10.580;2023-07-31T04:13:14;12.27;;;2.57;;
4278;SDS011;2153;47.744;10.580;2023-07-31T04:15:41;14.27;;;3.23;;
4278;SDS011;2153;47.744;10.580;2023-07-31T04:18:09;15.30;;;4.00;;
4278;SDS011;2153;47.744;10.580;2023-07-31T04:20:36;13.60;;;3.63;;
4278;SDS011;2153;47.744;10.580;2023-07-31T04:23:02;16.90;;;3.60;;
4278;SDS011;2153;47.744;10.580;2023-07-31T04:25:29;13.40;;;3.30;;
4278;SDS011;2153;47.744;10.580;2023-07-31T04:27:56;14.93;;;3.97;;
4278;SDS011;2153;47.744;10.580;2023-07-31T04:30:23;16.07;;;3.67;;
4278;SDS011;2153;47.744;10.580;2023-07-31T04:32:50;20.30;;;3.70;;
4278;SDS011;2153;47.744;10.580;2023-07-31T04:35:18;15.97;;;4.00;;
4278;SDS011;2153;47.744;10.580;2023-07-31T04:37:45;15.47;;;4.10;;
4278;SDS011;2153;47.744;10.580;2023-07-31T04:40:13;14.20;;;3.57;;
4278;SDS011;2153;47.744;10.580;2023-07-31T04:42:40;14.50;;;3.10;;
4278;SDS011;2153;47.744;10.580;2023-07-31T04:45:08;16.37;;;3.73;;
4278;SDS011;2153;47.744;10.580;2023-07-31T04:47:35;17.50;;;3.20;;
4278;SDS011;2153;47.744;10.580;2023-07-31T04:50:02;19.83;;;3.83;;
4278;SDS011;2153;47.744;10.580;2023-07-31T04:52:30;12.97;;;3.10;;
4278;SDS011;2153;47.744;10.580;2023-07-31T04:54:56;14.90;;;3.40;;
4278;SDS011;2153;47.744;10.580;2023-07-31T04:57:23;14.97;;;3.53;;
4278;SDS011;2153;47.744;10.580;2023-07-31T04:59:50;13.43;;;2.83;;
4278;SDS011;2153;47.744;10.580;2023-07-31T05:02:16;15.27;;;2.80;;
4278;SDS011;2153;47.744;10.580;2023-07-31T05:04:43;14.23;;;2.70;;
4278;SDS011;2153;47.744;10.580;2023-07-31T05:07:10;16.63;;;2.97;;
4278;SDS011;2153;47.744;10.580;2023-07-31T05:09:38;14.73;;;2.30;;
4278;SDS011;2153;47.744;10.580;2023-07-31T05:12:05;13.83;;;2.10;;
4278;SDS011;2153;47.744;10.580;2023-07-31T05:14:32;11.80;;;2.07;;
4278;SDS011;2153;47.744;10.580;2023-07-31T05:16:59;16.73;;;2.37;;
4278;SDS011;2153;47.744;10.580;2023-07-31T05:19:26;15.90;;;2.73;;
4278;SDS011;2153;47.744;10.580;2023-07-31T05:21:52;14.63;;;2.33;;
4278;SDS011;2153;47.744;10.580;2023-07-31T05:24:19;13.73;;;2.40;;
4278;SDS011;2153;47.744;10.580;2023-07-31T05:26:47;15.47;;;2.80;;
4278;SDS011;2153;47.744;10.580;2023-07-31T05:29:14;17.80;;;2.60;;
4278;SDS011;2153;47.744;10.580;2023-07-31T05:31:41;12.83;;;2.73;;
4278;SDS011;2153;47.744;10.580;2023-07-31T05:34:08;15.00;;;2.73;;
4278;SDS011;2153;47.744;10.580;2023-07-31T05:36:35;11.67;;;2.40;;
4278;SDS011;2153;47.744;10.580;2023-07-31T05:39:01;13.60;;;2.70;;
4278;SDS011;2153;47.744;10.580;2023-07-31T05:41:32;15.33;;;2.90;;
4278;SDS011;2153;47.744;10.580;2023-07-31T05:44:00;13.83;;;2.90;;
4278;SDS011;2153;47.744;10.580;2023-07-31T05:46:27;14.33;;;2.63;;
4278;SDS011;2153;47.744;10.580;2023-07-31T05:48:54;13.93;;;2.90;;
4278;SDS011;2153;47.744;10.580;2023-07-31T05:51:20;12.87;;;2.40;;
4278;SDS011;2153;47.744;10.580;2023-07-31T05:53:47;13.00;;;2.47;;
4278;SDS011;2153;47.744;10.580;2023-07-31T05:56:14;19.27;;;2.90;;
4278;SDS011;2153;47.744;10.580;2023-07-31T05:58:40;14.40;;;2.40;;
4278;SDS011;2153;47.744;10.580;2023-07-31T06:01:08;25.20;;;2.57;;
4278;SDS011;2153;47.744;10.580;2023-07-31T06:03:35;14.33;;;2.57;;
4278;SDS011;2153;47.744;10.580;2023-07-31T06:06:02;12.20;;;2.30;;
4278;SDS011;2153;47.744;10.580;2023-07-31T06:08:29;12.90;;;2.67;;
4278;SDS011;2153;47.744;10.580;2023-07-31T06:10:55;13.73;;;2.70;;
4278;SDS011;2153;47.744;10.580;2023-07-31T06:13:22;12.80;;;2.73;;
4278;SDS011;2153;47.744;10.580;2023-07-31T06:15:49;13.80;;;2.50;;
4278;SDS011;2153;47.744;10.580;2023-07-31T06:18:17;13.87;;;2.70;;
4278;SDS011;2153;47.744;10.580;2023-07-31T06:20:43;14.10;;;2.60;;
4278;SDS011;2153;47.744;10.580;2023-07-31T06:23:10;12.73;;;2.47;;
4278;SDS011;2153;47.744;10.580;2023-07-31T06:25:37;14.17;;;2.27;;
4278;SDS011;2153;47.744;10.580;2023-07-31T06:28:03;20.13;;;3.33;;
4278;SDS011;2153;47.744;10.580;2023-07-31T06:30:30;18.10;;;2.43;;
4278;SDS011;2153;47.744;10.580;2023-07-31T06:32:57;14.70;;;2.80;;
4278;SDS011;2153;47.744;10.580;2023-07-31T06:35:25;13.87;;;2.80;;
4278;SDS011;2153;47.744;10.580;2023-07-31T06:37:52;13.00;;;2.43;;
4278;SDS011;2153;47.744;10.580;2023-07-31T06:40:18;17.80;;;2.30;;
4278;SDS011;2153;47.744;10.580;2023-07-31T06:42:45;15.53;;;2.53;;
4278;SDS011;2153;47.744;10.580;2023-07-31T06:45:12;15.30;;;2.90;;
4278;SDS011;2153;47.744;10.580;2023-07-31T06:47:38;14.80;;;2.53;;
4278;SDS011;2153;47.744;10.580;2023-07-31T06:50:05;12.00;;;2.30;;
4278;SDS011;2153;47.744;10.580;2023-07-31T06:52:34;15.63;;;2.30;;
4278;SDS011;2153;47.744;10.580;2023-07-31T06:55:01;20.07;;;2.50;;
4278;SDS011;2153;47.744;10.580;2023-07-31T06:57:29;13.70;;;2.30;;
4278;SDS011;2153;47.744;10.580;2023-07-31T06:59:56;13.80;;;2.43;;
4278;SDS011;2153;47.744;10.580;2023-07-31T07:02:23;14.43;;;2.63;;
4278;SDS011;2153;47.744;10.580;2023-07-31T07:04:49;13.60;;;2.60;;
4278;SDS011;2153;47.744;10.580;2023-07-31T07:07:17;19.33;;;3.10;;
4278;SDS011;2153;47.744;10.580;2023-07-31T07:09:45;14.77;;;2.60;;
4278;SDS011;2153;47.744;10.580;2023-07-31T07:12:12;13.20;;;2.00;;
4278;SDS011;2153;47.744;10.580;2023-07-31T07:14:38;14.87;;;2.07;;
4278;SDS011;2153;47.744;10.580;2023-07-31T07:17:05;13.73;;;1.70;;
4278;SDS011;2153;47.744;10.580;2023-07-31T07:19:32;12.37;;;1.80;;
4278;SDS011;2153;47.744;10.580;2023-07-31T07:21:58;14.57;;;2.47;;
4278;SDS011;2153;47.744;10.580;2023-07-31T07:24:27;15.53;;;2.63;;
4278;SDS011;2153;47.744;10.580;2023-07-31T07:26:55;11.17;;;1.83;;
4278;SDS011;2153;47.744;10.580;2023-07-31T07:29:21;14.63;;;1.80;;
4278;SDS011;2153;47.744;10.580;2023-07-31T07:31:48;13.23;;;2.00;;
4278;SDS011;2153;47.744;10.580;2023-07-31T07:34:15;15.90;;;2.20;;
4278;SDS011;2153;47.744;10.580;2023-07-31T07:36:41;12.23;;;2.00;;
4278;SDS011;2153;47.744;10.580;2023-07-31T07:39:09;12.00;;;2.00;;
4278;SDS011;2153;47.744;10.580;2023-07-31T07:41:36;14.67;;;2.47;;
4278;SDS011;2153;47.744;10.580;2023-07-31T07:44:04;13.20;;;1.77;;
4278;SDS011;2153;47.744;10.580;2023-07-31T07:46:31;15.27;;;1.90;;
4278;SDS011;2153;47.744;10.580;2023-07-31T07:48:57;12.40;;;1.80;;
4278;SDS011;2153;47.744;10.580;2023-07-31T07:51:24;12.43;;;2.10;;
4278;SDS011;2153;47.744;10.580;2023-07-31T07:53:51;11.93;;;1.87;;
4278;SDS011;2153;47.744;10.580;2023-07-31T07:56:18;12.20;;;1.80;;
4278;SDS011;2153;47.744;10.580;2023-07-31T07:58:44;13.33;;;2.03;;
4278;SDS011;2153;47.744;10.580;2023-07-31T08:01:15;12.97;;;1.90;;
4278;SDS011;2153;47.744;10.580;2023-07-31T08:03:42;12.17;;;2.07;;
4278;SDS011;2153;47.744;10.580;2023-07-31T08:06:09;14.43;;;2.00;;
4278;SDS011;2153;47.744;10.580;2023-07-31T08:08:36;14.27;;;2.40;;
4278;SDS011;2153;47.744;10.580;2023-07-31T08:11:03;13.23;;;1.97;;
4278;SDS011;2153;47.744;10.580;2023-07-31T08:13:30;11.00;;;1.77;;
4278;SDS011;2153;47.744;10.580;2023-07-31T08:15:56;13.67;;;2.20;;
4278;SDS011;2153;47.744;10.580;2023-07-31T08:18:24;10.90;;;1.70;;
4278;SDS011;2153;47.744;10.580;2023-07-31T08:20:51;21.23;;;2.20;;
4278;SDS011;2153;47.744;10.580;2023-07-31T08:23:18;15.50;;;2.00;;
4278;SDS011;2153;47.744;10.580;2023-07-31T08:25:45;15.70;;;2.43;;
4278;SDS011;2153;47.744;10.580;2023-07-31T08:28:14;13.60;;;2.20;;
4278;SDS011;2153;47.744;10.580;2023-07-31T08:30:41;13.63;;;2.43;;
4278;SDS011;2153;47.744;10.580;2023-07-31T08:33:08;15.47;;;2.00;;
4278;SDS011;2153;47.744;10.580;2023-07-31T08:35:36;14.60;;;2.40;;
4278;SDS011;2153;47.744;10.580;2023-07-31T08:38:03;14.40;;;1.90;;
4278;SDS011;2153;47.744;10.580;2023-07-31T08:40:30;18.63;;;2.00;;
4278;SDS011;2153;47.744;10.580;2023-07-31T08:42:56;17.70;;;2.63;;
4278;SDS011;2153;47.744;10.580;2023-07-31T08:45:27;13.73;;;2.47;;
4278;SDS011;2153;47.744;10.580;2023-07-31T08:47:54;12.33;;;1.77;;
4278;SDS011;2153;47.744;10.580;2023-07-31T08:50:22;12.83;;;1.70;;
4278;SDS011;2153;47.744;10.580;2023-07-31T08:52:51;15.60;;;2.07;;
4278;SDS011;2153;47.744;10.580;2023-07-31T08:55:18;13.30;;;1.80;;
4278;SDS011;2153;47.744;10.580;2023-07-31T08:57:48;16.93;;;2.50;;
4278;SDS011;2153;47.744;10.580;2023-07-31T09:00:17;15.07;;;2.43;;
4278;SDS011;2153;47.744;10.580;2023-07-31T09:02:46;13.63;;;1.90;;
4278;SDS011;2153;47.744;10.580;2023-07-31T09:05:23;15.73;;;2.47;;
4278;SDS011;2153;47.744;10.580;2023-07-31T09:07:54;12.57;;;1.80;;
4278;SDS011;2153;47.744;10.580;2023-07-31T09:10:23;11.90;;;2.00;;
4278;SDS011;2153;47.744;10.580;2023-07-31T09:12:50;12.70;;;2.57;;
4278;SDS011;2153;47.744;10.580;2023-07-31T09:15:18;13.80;;;2.50;;
4278;SDS011;2153;47.744;10.580;2023-07-31T09:17:46;13.20;;;2.10;;
4278;SDS011;2153;47.744;10.580;2023-07-31T09:20:13;12.67;;;2.23;;
4278;SDS011;2153;47.744;10.580;2023-07-31T09:22:40;14.40;;;2.20;;
4278;SDS011;2153;47.744;10.580;2023-07-31T09:25:15;12.10;;;2.03;;
4278;SDS011;2153;47.744;10.580;2023-07-31T09:27:46;12.97;;;2.43;;
4278;SDS011;2153;47.744;10.580;2023-07-31T09:30:14;16.30;;;3.10;;
4278;SDS011;2153;47.744;10.580;2023-07-31T09:32:40;18.63;;;2.47;;
4278;SDS011;2153;47.744;10.580;2023-07-31T09:37:55;12.67;;;2.30;;
4278;SDS011;2153;47.744;10.580;2023-07-31T09:40:26;14.70;;;2.50;;
4278;SDS011;2153;47.744;10.580;2023-07-31T09:42:55;14.40;;;2.20;;
4278;SDS011;2153;47.744;10.580;2023-07-31T09:45:23;16.87;;;3.27;;
4278;SDS011;2153;47.744;10.580;2023-07-31T09:47:49;12.70;;;2.93;;
4278;SDS011;2153;47.744;10.580;2023-07-31T09:50:16;12.60;;;2.00;;
4278;SDS011;2153;47.744;10.580;2023-07-31T09:52:43;14.60;;;2.27;;
4278;SDS011;2153;47.744;10.580;2023-07-31T09:55:10;13.60;;;2.13;;
4278;SDS011;2153;47.744;10.580;2023-07-31T09:57:39;11.60;;;2.20;;
4278;SDS011;2153;47.744;10.580;2023-07-31T10:00:07;12.20;;;2.10;;
4278;SDS011;2153;47.744;10.580;2023-07-31T10:02:35;13.70;;;1.80;;
4278;SDS011;2153;47.744;10.580;2023-07-31T10:05:03;13.03;;;2.30;;
4278;SDS011;2153;47.744;10.580;2023-07-31T10:07:32;12.87;;;1.90;;
4278;SDS011;2153;47.744;10.580;2023-07-31T10:10:02;13.00;;;2.43;;
4278;SDS011;2153;47.744;10.580;2023-07-31T10:12:32;13.30;;;2.27;;
4278;SDS011;2153;47.744;10.580;2023-07-31T10:15:01;14.43;;;2.50;;
4278;SDS011;2153;47.744;10.580;2023-07-31T10:17:28;12.43;;;2.40;;
4278;SDS011;2153;47.744;10.580;2023-07-31T10:19:56;10.93;;;1.63;;
4278;SDS011;2153;47.744;10.580;2023-07-31T10:22:26;14.40;;;2.33;;
4278;SDS011;2153;47.744;10.580;2023-07-31T10:24:52;12.30;;;2.53;;
4278;SDS011;2153;47.744;10.580;2023-07-31T10:27:21;18.93;;;2.40;;
4278;SDS011;2153;47.744;10.580;2023-07-31T10:29:47;12.53;;;2.20;;
4278;SDS011;2153;47.744;10.580;2023-07-31T10:32:17;11.27;;;2.10;;
4278;SDS011;2153;47.744;10.580;2023-07-31T10:34:44;12.20;;;2.30;;
4278;SDS011;2153;47.744;10.580;2023-07-31T10:37:19;11.40;;;1.80;;
4278;SDS011;2153;47.744;10.580;2023-07-31T10:39:54;14.30;;;2.73;;
4278;SDS011;2153;47.744;10.580;2023-07-31T10:42:29;12.07;;;2.00;;
4278;SDS011;2153;47.744;10.580;2023-07-31T10:44:58;14.90;;;2.47;;
4278;SDS011;2153;47.744;10.580;2023-07-31T10:47:27;11.90;;;2.20;;
4278;SDS011;2153;47.744;10.580;2023-07-31T10:52:39;11.83;;;2.20;;
4278;SDS011;2153;47.744;10.580;2023-07-31T10:55:13;12.30;;;2.30;;
4278;SDS011;2153;47.744;10.580;2023-07-31T10:57:44;12.97;;;2.30;;
4278;SDS011;2153;47.744;10.580;2023-07-31T11:00:18;12.13;;;2.20;;
4278;SDS011;2153;47.744;10.580;2023-07-31T11:02:56;14.40;;;2.20;;
4278;SDS011;2153;47.744;10.580;2023-07-31T11:05:40;18.13;;;2.70;;
4278;SDS011;2153;47.744;10.580;2023-07-31T11:08:12;11.40;;;2.13;;
4278;SDS011;2153;47.744;10.580;2023-07-31T11:10:39;13.80;;;2.27;;
4278;SDS011;2153;47.744;10.580;2023-07-31T11:13:07;11.47;;;2.10;;
4278;SDS011;2153;47.744;10.580;2023-07-31T11:15:33;14.13;;;2.40;;
4278;SDS011;2153;47.744;10.580;2023-07-31T11:18:02;11.50;;;1.83;;
4278;SDS011;2153;47.744;10.580;2023-07-31T11:20:30;14.40;;;2.43;;
4278;SDS011;2153;47.744;10.580;2023-07-31T11:22:58;13.00;;;2.10;;
4278;SDS011;2153;47.744;10.580;2023-07-31T11:25:26;15.90;;;2.70;;
4278;SDS011;2153;47.744;10.580;2023-07-31T11:27:55;11.70;;;2.13;;
4278;SDS011;2153;47.744;10.580;2023-07-31T11:30:22;14.73;;;2.30;;
4278;SDS011;2153;47.744;10.580;2023-07-31T11:32:48;12.30;;;2.27;;
4278;SDS011;2153;47.744;10.580;2023-07-31T11:35:17;11.70;;;2.10;;
4278;SDS011;2153;47.744;10.580;2023-07-31T11:37:44;11.90;;;1.90;;
4278;SDS011;2153;47.744;10.580;2023-07-31T11:40:11;12.60;;;2.40;;
4278;SDS011;2153;47.744;10.580;2023-07-31T11:42:38;11.87;;;2.07;;
4278;SDS011;2153;47.744;10.580;2023-07-31T11:45:05;11.10;;;2.07;;
4278;SDS011;2153;47.744;10.580;2023-07-31T11:47:33;10.73;;;1.87;;
4278;SDS011;2153;47.744;10.580;2023-07-31T11:50:01;12.40;;;2.13;;
4278;SDS011;2153;47.744;10.580;2023-07-31T11:52:30;11.50;;;1.90;;
4278;SDS011;2153;47.744;10.580;2023-07-31T11:55:00;11.80;;;1.87;;
4278;SDS011;2153;47.744;10.580;2023-07-31T11:57:27;12.60;;;2.50;;
4278;SDS011;2153;47.744;10.580;2023-07-31T11:59:54;11.23;;;1.83;;
4278;SDS011;2153;47.744;10.580;2023-07-31T12:02:22;11.13;;;2.47;;
4278;SDS011;2153;47.744;10.580;2023-07-31T12:04:49;12.87;;;1.97;;
4278;SDS011;2153;47.744;10.580;2023-07-31T12:07:16;12.60;;;2.67;;
4278;SDS011;2153;47.744;10.580;2023-07-31T12:09:51;12.40;;;2.50;;
4278;SDS011;2153;47.744;10.580;2023-07-31T12:12:19;11.47;;;2.27;;
4278;SDS011;2153;47.744;10.580;2023-07-31T12:14:46;13.30;;;2.23;;
4278;SDS011;2153;47.744;10.580;2023-07-31T12:17:13;17.10;;;2.23;;
4278;SDS011;2153;47.744;10.580;2023-07-31T12:19:40;12.10;;;2.10;;
4278;SDS011;2153;47.744;10.580;2023-07-31T12:22:11;11.33;;;2.20;;
4278;SDS011;2153;47.744;10.580;2023-07-31T12:24:38;17.17;;;2.27;;
4278;SDS011;2153;47.744;10.580;2023-07-31T12:27:10;10.80;;;1.80;;
4278;SDS011;2153;47.744;10.580;2023-07-31T12:29:37;10.63;;;1.90;;
4278;SDS011;2153;47.744;10.580;2023-07-31T12:32:17;12.10;;;1.90;;
4278;SDS011;2153;47.744;10.580;2023-07-31T12:34:45;11.20;;;1.80;;
4278;SDS011;2153;47.744;10.580;2023-07-31T12:37:12;15.37;;;1.77;;
4278;SDS011;2153;47.744;10.580;2023-07-31T12:39:38;11.17;;;2.10;;
4278;SDS011;2153;47.744;10.580;2023-07-31T12:42:05;10.73;;;1.90;;
4278;SDS011;2153;47.744;10.580;2023-07-31T12:44:34;13.10;;;2.07;;
4278;SDS011;2153;47.744;10.580;2023-07-31T12:47:00;12.37;;;2.40;;
4278;SDS011;2153;47.744;10.580;2023-07-31T12:49:29;11.23;;;1.70;;
4278;SDS011;2153;47.744;10.580;2023-07-31T12:51:55;12.17;;;2.30;;
4278;SDS011;2153;47.744;10.580;2023-07-31T12:54:22;11.70;;;1.90;;
4278;SDS011;2153;47.744;10.580;2023-07-31T12:56:49;13.40;;;2.10;;
4278;SDS011;2153;47.744;10.580;2023-07-31T12:59:15;14.57;;;2.20;;
4278;SDS011;2153;47.744;10.580;2023-07-31T13:01:43;11.00;;;1.90;;
4278;SDS011;2153;47.744;10.580;2023-07-31T13:04:10;12.40;;;2.10;;
4278;SDS011;2153;47.744;10.580;2023-07-31T13:06:37;12.33;;;2.20;;
4278;SDS011;2153;47.744;10.580;2023-07-31T13:09:03;12.00;;;1.77;;
4278;SDS011;2153;47.744;10.580;2023-07-31T13:11:30;12.43;;;2.30;;
4278;SDS011;2153;47.744;10.580;2023-07-31T13:13:57;11.60;;;2.40;;
4278;SDS011;2153;47.744;10.580;2023-07-31T13:16:23;17.60;;;2.03;;
4278;SDS011;2153;47.744;10.580;2023-07-31T13:18:51;11.57;;;2.30;;
4278;SDS011;2153;47.744;10.580;2023-07-31T13:21:18;12.10;;;2.20;;
4278;SDS011;2153;47.744;10.580;2023-07-31T13:23:47;11.20;;;1.83;;
4278;SDS011;2153;47.744;10.580;2023-07-31T13:26:13;12.00;;;2.00;;
4278;SDS011;2153;47.744;10.580;2023-07-31T13:28:40;12.30;;;1.87;;
4278;SDS011;2153;47.744;10.580;2023-07-31T13:31:07;11.40;;;2.10;;
4278;SDS011;2153;47.744;10.580;2023-07-31T13:33:34;14.80;;;2.33;;
4278;SDS011;2153;47.744;10.580;2023-07-31T13:36:02;15.20;;;2.40;;
4278;SDS011;2153;47.744;10.580;2023-07-31T13:38:29;11.50;;;1.90;;
4278;SDS011;2153;47.744;10.580;2023-07-31T13:40:55;11.77;;;1.93;;
4278;SDS011;2153;47.744;10.580;2023-07-31T13:43:22;12.03;;;2.40;;
4278;SDS011;2153;47.744;10.580;2023-07-31T13:45:49;11.23;;;2.20;;
4278;SDS011;2153;47.744;10.580;2023-07-31T13:48:16;12.57;;;2.30;;
4278;SDS011;2153;47.744;10.580;2023-07-31T13:50:42;23.20;;;2.50;;
4278;SDS011;2153;47.744;10.580;2023-07-31T13:53:10;10.90;;;1.80;;
4278;SDS011;2153;47.744;10.580;2023-07-31T13:55:37;11.00;;;1.80;;
4278;SDS011;2153;47.744;10.580;2023-07-31T13:58:04;13.30;;;2.20;;
4278;SDS011;2153;47.744;10.580;2023-07-31T14:00:31;18.33;;;1.73;;
4278;SDS011;2153;47.744;10.580;2023-07-31T14:02:57;11.50;;;1.80;;
4278;SDS011;2153;47.744;10.580;2023-07-31T14:05:24;10.80;;;1.73;;
4278;SDS011;2153;47.744;10.580;2023-07-31T14:07:51;12.07;;;2.00;;
4278;SDS011;2153;47.744;10.580;2023-07-31T14:10:19;11.87;;;2.13;;
4278;SDS011;2153;47.744;10.580;2023-07-31T14:12:46;10.97;;;1.60;;
4278;SDS011;2153;47.744;10.580;2023-07-31T14:15:12;13.10;;;1.97;;
4278;SDS011;2153;47.744;10.580;2023-07-31T14:17:39;16.07;;;2.07;;
4278;SDS011;2153;47.744;10.580;2023-07-31T14:20:06;10.10;;;1.40;;
4278;SDS011;2153;47.744;10.580;2023-07-31T14:22:34;11.50;;;1.73;;
4278;SDS011;2153;47.744;10.580;2023-07-31T14:25:01;10.50;;;1.40;;
4278;SDS011;2153;47.744;10.580;2023-07-31T14:27:29;10.07;;;1.40;;
4278;SDS011;2153;47.744;10.580;2023-07-31T14:29:56;11.40;;;1.43;;
4278;SDS011;2153;47.744;10.580;2023-07-31T14:32:22;15.53;;;1.37;;
4278;SDS011;2153;47.744;10.580;2023-07-31T14:34:50;11.37;;;2.17;;
4278;SDS011;2153;47.744;10.580;2023-07-31T14:37:17;10.50;;;1.60;;
4278;SDS011;2153;47.744;10.580;2023-07-31T14:39:43;10.50;;;1.77;;
4278;SDS011;2153;47.744;10.580;2023-07-31T14:42:10;10.60;;;1.70;;
4278;SDS011;2153;47.744;10.580;2023-07-31T14:44:38;10.87;;;1.77;;
4278;SDS011;2153;47.744;10.580;2023-07-31T14:47:05;10.90;;;1.80;;
4278;SDS011;2153;47.744;10.580;2023-07-31T14:49:32;13.20;;;2.40;;
4278;SDS011;2153;47.744;10.580;2023-07-31T14:51:58;11.17;;;1.80;;
4278;SDS011;2153;47.744;10.580;2023-07-31T14:54:25;12.07;;;1.83;;
4278;SDS011;2153;47.744;10.580;2023-07-31T14:56:52;13.00;;;1.77;;
4278;SDS011;2153;47.744;10.580;2023-07-31T14:59:18;11.50;;;2.30;;